createdAt,value
2019-03-16T00:00:31.184Z,1.85
2019-03-16T00:05:34.185Z,1.67
2019-03-16T00:10:37.715Z,1.37
2019-03-16T00:15:41.003Z,1.60
2019-03-16T00:20:44.101Z,1.27
2019-03-16T00:25:47.404Z,1.07
2019-03-16T00:30:50.526Z,1.30
2019-03-16T00:35:53.632Z,1.67
2019-03-16T00:40:56.883Z,0.98
2019-03-16T00:46:00.009Z,1.02
2019-03-16T00:51:03.339Z,0.62
2019-03-16T00:56:06.498Z,0.90
2019-03-16T01:01:09.715Z,0.70
2019-03-16T01:06:12.861Z,0.98
2019-03-16T01:11:15.829Z,0.70
2019-03-16T01:16:18.953Z,0.70
2019-03-16T01:21:22.027Z,1.10
2019-03-16T01:26:25.155Z,0.57
2019-03-16T01:31:28.144Z,0.60
2019-03-16T01:36:31.281Z,0.80
2019-03-16T01:41:34.366Z,0.85
2019-03-16T01:46:37.597Z,0.82
2019-03-16T01:51:40.730Z,1.10
2019-03-16T01:56:43.694Z,0.80
2019-03-16T02:01:49.298Z,1.00
2019-03-16T02:06:52.084Z,0.70
2019-03-16T02:11:55.198Z,0.80
2019-03-16T02:16:58.174Z,1.15
2019-03-16T02:22:01.398Z,0.82
2019-03-16T02:27:04.471Z,0.93
2019-03-16T02:32:07.921Z,0.85
2019-03-16T02:37:10.953Z,1.00
2019-03-16T02:42:14.033Z,0.95
2019-03-16T02:47:17.291Z,0.80
2019-03-16T02:52:20.463Z,0.88
2019-03-16T02:57:23.935Z,0.90
2019-03-16T03:02:27.394Z,0.65
2019-03-16T03:07:30.575Z,0.80
2019-03-16T03:12:33.557Z,0.40
2019-03-16T03:17:36.890Z,1.02
2019-03-16T03:22:40.334Z,1.00
2019-03-16T03:27:43.644Z,0.80
2019-03-16T03:32:46.644Z,0.78
2019-03-16T03:37:49.976Z,0.70
2019-03-16T03:42:53.168Z,0.95
2019-03-16T03:47:56.393Z,1.25
2019-03-16T03:52:59.686Z,1.10
2019-03-16T03:58:03.015Z,1.10
2019-03-16T04:03:06.698Z,0.70
2019-03-16T04:08:09.660Z,1.10
2019-03-16T04:13:12.987Z,0.82
2019-03-16T04:18:16.094Z,0.95
2019-03-16T04:23:19.166Z,1.00
2019-03-16T04:28:22.278Z,1.22
2019-03-16T04:33:25.938Z,0.70
2019-03-16T04:38:28.914Z,1.00
2019-03-16T04:43:31.919Z,1.60
2019-03-16T04:48:35.147Z,1.60
2019-03-16T04:53:38.356Z,1.10
2019-03-16T04:58:41.365Z,0.95
2019-03-16T05:03:44.352Z,1.30
2019-03-16T05:08:47.695Z,0.90
2019-03-16T05:13:50.776Z,1.20
2019-03-16T05:18:54.049Z,1.45
2019-03-16T05:23:57.300Z,0.90
2019-03-16T05:29:00.617Z,1.10
2019-03-16T05:34:03.721Z,1.50
2019-03-16T05:39:07.513Z,1.12
2019-03-16T05:44:10.743Z,1.47
2019-03-16T05:49:13.739Z,1.57
2019-03-16T05:54:16.696Z,1.05
2019-03-16T05:59:20.103Z,1.15
2019-03-16T06:04:23.513Z,1.50
2019-03-16T06:09:26.714Z,1.25
2019-03-16T06:14:29.798Z,1.35
2019-03-16T06:19:33.032Z,1.10
2019-03-16T06:24:35.993Z,1.35
2019-03-16T06:29:39.230Z,2.08
2019-03-16T06:34:42.434Z,1.17
2019-03-16T06:39:45.540Z,1.60
2019-03-16T06:44:48.873Z,1.10
2019-03-16T06:49:52.333Z,0.98
2019-03-16T06:54:55.478Z,1.35
2019-03-16T06:59:58.641Z,1.90
2019-03-16T07:05:01.794Z,2.02
2019-03-16T07:10:05.583Z,1.50
2019-03-16T07:15:08.789Z,1.05
2019-03-16T07:20:12.322Z,1.85
2019-03-16T07:25:15.432Z,1.70
2019-03-16T07:30:18.604Z,1.90
2019-03-16T07:35:21.856Z,2.33
2019-03-16T07:40:27.923Z,1.50
2019-03-16T07:45:31.076Z,2.13
2019-03-16T07:50:34.427Z,1.70
2019-03-16T07:55:37.998Z,1.42
2019-03-16T08:00:41.207Z,1.50
2019-03-16T08:05:44.318Z,1.70
2019-03-16T08:10:47.327Z,1.72
2019-03-16T08:15:50.648Z,1.95
2019-03-16T08:20:53.853Z,1.67
2019-03-16T08:25:56.877Z,1.35
2019-03-16T08:31:00.130Z,1.90
2019-03-16T08:36:03.393Z,1.57
2019-03-16T08:41:06.687Z,1.95
2019-03-16T08:46:10.105Z,2.10
2019-03-16T08:51:13.120Z,1.70
2019-03-16T08:56:16.196Z,2.15
2019-03-16T09:01:19.243Z,1.70
2019-03-16T09:06:22.557Z,1.55
2019-03-16T09:11:25.565Z,1.52
2019-03-16T09:16:28.581Z,2.17
2019-03-16T09:21:31.542Z,2.15
2019-03-16T09:26:35.069Z,2.00
2019-03-16T09:31:38.223Z,2.27
2019-03-16T09:36:41.380Z,1.50
2019-03-16T09:41:44.679Z,2.35
2019-03-16T09:46:47.688Z,2.12
2019-03-16T09:51:50.884Z,2.30
2019-03-16T09:57:00.996Z,1.50
2019-03-16T10:01:58.891Z,2.00
2019-03-16T10:07:02.460Z,2.05
2019-03-16T10:12:05.494Z,1.92
2019-03-16T10:17:08.668Z,2.20
2019-03-16T10:22:11.817Z,2.12
2019-03-16T10:27:15.401Z,2.42
2019-03-16T10:32:18.523Z,2.10
2019-03-16T10:37:21.926Z,2.20
2019-03-16T10:42:25.175Z,1.73
2019-03-16T10:47:28.469Z,2.50
2019-03-16T10:52:31.478Z,2.40
2019-03-16T10:57:35.066Z,2.33
2019-03-16T11:02:38.330Z,1.60
2019-03-16T11:07:41.823Z,1.72
2019-03-16T11:12:44.905Z,2.17
2019-03-16T11:17:48.118Z,2.20
2019-03-16T11:22:51.173Z,2.42
2019-03-16T11:27:54.177Z,2.30
2019-03-16T11:32:57.204Z,2.43
2019-03-16T11:38:00.190Z,2.02
2019-03-16T11:43:03.564Z,3.05
2019-03-16T11:48:06.644Z,2.02
2019-03-16T11:53:09.830Z,2.40
2019-03-16T11:58:13.070Z,1.80
2019-03-16T12:03:16.180Z,2.35
2019-03-16T12:08:19.348Z,2.55
2019-03-16T12:13:22.549Z,2.58
2019-03-16T12:18:25.775Z,1.72
2019-03-16T12:23:28.861Z,2.20
2019-03-16T12:28:32.143Z,2.83
2019-03-16T12:33:35.293Z,2.40
2019-03-16T12:38:38.652Z,2.45
2019-03-16T12:43:41.727Z,2.33
2019-03-16T12:48:45.053Z,2.52
2019-03-16T12:53:48.534Z,2.05
2019-03-16T12:58:51.594Z,2.30
2019-03-16T13:03:54.680Z,2.00
2019-03-16T13:08:57.608Z,1.85
2019-03-16T13:14:00.800Z,2.00
2019-03-16T13:19:03.755Z,3.27
2019-03-16T13:24:06.742Z,2.20
2019-03-16T13:29:09.940Z,3.00
2019-03-16T13:34:12.938Z,1.98
2019-03-16T13:39:16.004Z,2.00
2019-03-16T13:44:19.494Z,2.10
2019-03-16T13:49:22.535Z,2.67
2019-03-16T13:54:25.734Z,2.25
2019-03-16T13:59:29.128Z,2.10
2019-03-16T14:04:32.583Z,2.42
2019-03-16T14:09:35.783Z,2.50
2019-03-16T14:14:39.312Z,1.82
2019-03-16T14:19:42.582Z,2.05
2019-03-16T14:24:45.891Z,1.60
2019-03-16T14:29:49.907Z,1.60
2019-03-16T14:34:53.137Z,2.00
2019-03-16T14:39:56.642Z,2.10
2019-03-16T14:44:59.691Z,2.33
2019-03-16T14:50:03.520Z,2.33
2019-03-16T14:55:06.930Z,2.45
2019-03-16T15:00:12.186Z,2.58
2019-03-16T15:05:15.365Z,1.98
2019-03-16T15:10:18.602Z,2.17
2019-03-16T15:15:21.807Z,2.70
2019-03-16T15:20:25.034Z,2.50
2019-03-16T15:25:28.345Z,2.90
2019-03-16T15:30:31.646Z,2.67
2019-03-16T15:35:35.036Z,2.80
2019-03-16T15:40:38.497Z,3.20
2019-03-16T15:45:41.702Z,3.27
2019-03-16T15:50:45.227Z,3.37
2019-03-16T15:55:48.432Z,3.27
2019-03-16T16:01:03.160Z,3.65
2019-03-16T16:05:57.725Z,3.67
2019-03-16T16:11:01.565Z,3.00
2019-03-16T16:16:05.058Z,4.22
2019-03-16T16:21:08.293Z,4.90
2019-03-16T16:26:11.319Z,4.10
2019-03-16T16:31:16.630Z,3.70
2019-03-16T16:36:19.584Z,4.33
2019-03-16T16:41:25.451Z,4.37
2019-03-16T16:46:28.162Z,3.47
2019-03-16T16:51:31.478Z,3.95
2019-03-16T16:56:34.638Z,4.25
2019-03-16T17:01:37.725Z,4.85
2019-03-16T17:06:41.149Z,4.45
2019-03-16T17:11:44.466Z,5.10
2019-03-16T17:16:47.870Z,5.00
2019-03-16T17:21:51.030Z,3.80
2019-03-16T17:26:54.101Z,4.85
2019-03-16T17:31:57.498Z,4.10
2019-03-16T17:37:00.492Z,4.30
2019-03-16T17:42:03.817Z,4.87
2019-03-16T17:47:07.047Z,4.67
2019-03-16T17:52:10.142Z,5.28
2019-03-16T17:57:13.145Z,5.20
2019-03-16T18:02:16.365Z,5.70
2019-03-16T18:07:19.364Z,5.97
2019-03-16T18:12:22.548Z,5.72
2019-03-16T18:17:25.621Z,4.93
2019-03-16T18:22:28.600Z,5.17
2019-03-16T18:27:31.669Z,4.80
2019-03-16T18:32:34.925Z,4.35
2019-03-16T18:37:38.130Z,5.03
2019-03-16T18:42:41.186Z,4.87
2019-03-16T18:47:44.575Z,4.62
2019-03-16T18:52:48.059Z,5.60
2019-03-16T18:57:51.592Z,4.97
2019-03-16T19:02:54.642Z,5.83
2019-03-16T19:07:57.712Z,5.75
2019-03-16T19:13:00.902Z,5.42
2019-03-16T19:18:04.318Z,4.73
2019-03-16T19:23:07.627Z,5.87
2019-03-16T19:28:10.840Z,5.25
2019-03-16T19:33:14.070Z,5.08
2019-03-16T19:38:17.136Z,4.28
2019-03-16T19:43:21.261Z,5.35
2019-03-16T19:48:24.277Z,4.22
2019-03-16T19:53:27.716Z,5.40
2019-03-16T19:58:30.842Z,4.30
2019-03-16T20:03:33.889Z,5.58
2019-03-16T20:08:37.028Z,4.97
2019-03-16T20:13:40.045Z,4.12
2019-03-16T20:18:43.132Z,5.70
2019-03-16T20:23:46.283Z,4.80
2019-03-16T20:28:49.400Z,5.00
2019-03-16T20:33:52.639Z,5.55
2019-03-16T20:38:55.661Z,6.42
2019-03-16T20:43:58.902Z,5.42
2019-03-16T20:49:01.963Z,5.97
2019-03-16T20:54:06.165Z,4.80
2019-03-16T20:59:09.684Z,6.15
2019-03-16T21:04:12.673Z,5.42
2019-03-16T21:09:15.972Z,5.85
2019-03-16T21:14:19.085Z,6.53
2019-03-16T21:19:22.668Z,6.22
2019-03-16T21:24:25.864Z,7.15
2019-03-16T21:29:29.122Z,6.80
2019-03-16T21:34:33.460Z,7.10
2019-03-16T21:39:36.868Z,7.50
2019-03-16T21:44:40.752Z,7.55
2019-03-16T21:49:43.898Z,7.97
2019-03-16T21:54:47.008Z,6.72
2019-03-16T21:59:50.118Z,8.18
2019-03-16T22:04:53.236Z,8.50
2019-03-16T22:09:56.604Z,7.28
2019-03-16T22:14:59.696Z,6.62
2019-03-16T22:20:02.965Z,7.12
2019-03-16T22:25:06.275Z,8.50
2019-03-16T22:30:09.912Z,7.22
2019-03-16T22:35:13.217Z,7.92
2019-03-16T22:40:16.283Z,6.80
2019-03-16T22:45:19.695Z,6.83
2019-03-16T22:50:22.803Z,7.53
2019-03-16T22:55:26.156Z,7.28
2019-03-16T23:00:42.610Z,8.08
2019-03-16T23:05:45.572Z,7.60
2019-03-16T23:10:49.059Z,6.87
2019-03-16T23:15:52.400Z,7.85
2019-03-16T23:20:55.997Z,6.80
2019-03-16T23:25:59.313Z,7.20
2019-03-16T23:31:03.280Z,8.30
2019-03-16T23:36:06.568Z,8.08
2019-03-16T23:41:09.538Z,8.10
2019-03-16T23:46:12.795Z,8.85
2019-03-16T23:51:15.883Z,9.05
2019-03-16T23:56:19.016Z,8.90
